Time;durP1;ratioP1;P1;durP2;ratioP2;P2;SDS_P1;SDS_P2;PMS_P1;PMS_P2;Temp;Humidity;BMP_temperature;BMP_pressure;BME280_temperature;BME280_humidity;BME280_pressure;Samples;Min_cycle;Max_cycle;Signal;HPM_P1;HPM_P2
2020/12/08 00:03:47;;;;;;;68.45;42.30;;;;;;;7.98;79.14;99310.06;2712378;87;21166;-60
2020/12/08 00:07:51;;;;;;;55.35;36.65;;;;;;;7.96;79.08;99319.95;2712161;87;21735;-61
2020/12/08 00:11:54;;;;;;;59.15;38.63;;;;;;;7.97;79.07;99308.39;2712586;87;21167;-60
2020/12/08 00:15:57;;;;;;;61.75;38.10;;;;;;;7.99;79.16;99310.41;2712243;87;21155;-61
2020/12/08 00:20:00;;;;;;;52.23;34.90;;;;;;;8.01;79.09;99303.17;2712398;87;21135;-61
2020/12/08 00:24:03;;;;;;;52.83;35.85;;;;;;;7.98;79.04;99310.06;2712491;87;21207;-61
2020/12/08 00:28:06;;;;;;;57.40;37.17;;;;;;;7.96;79.18;99308.04;2712184;87;21199;-61
2020/12/08 00:32:09;;;;;;;61.77;36.90;;;;;;;7.93;79.29;99297.72;2713733;87;21214;-61
2020/12/08 00:36:14;;;;;;;63.73;41.05;;;;;;;7.94;79.35;99298.06;2714397;87;21193;-60
2020/12/08 00:40:17;;;;;;;58.90;38.00;;;;;;;7.94;79.15;99292.77;2714383;87;21161;-61
2020/12/08 00:44:20;;;;;;;64.37;40.25;;;;;;;7.89;79.13;99294.98;2714423;87;21189;-61
2020/12/08 00:48:23;;;;;;;57.60;36.08;;;;;;;7.84;79.18;99288.76;2714124;87;21533;-61
2020/12/08 00:52:27;;;;;;;74.72;39.55;;;;;;;7.78;79.20;99287.97;2714450;87;21217;-61
2020/12/08 00:56:32;;;;;;;72.45;41.00;;;;;;;7.72;79.23;99282.72;2712548;87;21181;-62
2020/12/08 01:00:35;;;;;;;62.65;42.53;;;;;;;7.69;78.98;99286.95;2712813;87;21170;-60
2020/12/08 01:04:39;;;;;;;71.92;43.95;;;;;;;7.58;78.98;99287.38;2713664;87;21194;-61
2020/12/08 01:08:42;;;;;;;67.67;42.20;;;;;;;7.50;79.13;99285.88;2714655;87;21146;-62
2020/12/08 01:12:45;;;;;;;58.78;39.33;;;;;;;7.43;79.09;99297.94;2671992;87;21171;-61
2020/12/08 01:16:48;;;;;;;73.35;44.30;;;;;;;7.35;79.08;99296.44;2671284;89;21208;-61
2020/12/08 01:20:51;;;;;;;66.05;39.90;;;;;;;7.26;79.12;99289.61;2671522;89;21200;-63
2020/12/08 01:24:54;;;;;;;65.05;44.50;;;;;;;7.14;79.31;99290.66;2671443;89;21184;-62
2020/12/08 01:28:57;;;;;;;64.80;42.30;;;;;;;7.04;79.71;99282.66;2671180;87;21176;-63
2020/12/08 01:33:00;;;;;;;66.92;42.33;;;;;;;7.00;79.82;99289.17;2671083;87;21694;-62
2020/12/08 01:37:03;;;;;;;70.30;44.67;;;;;;;6.94;79.90;99299.77;2671232;89;21614;-61
2020/12/08 01:41:06;;;;;;;71.47;45.30;;;;;;;6.91;79.90;99300.02;2671380;89;21152;-62
2020/12/08 01:45:09;;;;;;;76.55;47.73;;;;;;;6.87;79.91;99298.57;2670945;89;21609;-61
2020/12/08 01:49:15;;;;;;;65.00;42.48;;;;;;;6.80;80.05;99290.80;2671062;87;21220;-63
2020/12/08 01:53:18;;;;;;;63.58;43.73;;;;;;;6.75;80.12;99287.70;2671310;89;21204;-61
2020/12/08 01:57:22;;;;;;;58.38;38.88;;;;;;;6.72;80.27;99296.71;2671137;89;21156;-64
2020/12/08 02:01:25;;;;;;;70.17;43.05;;;;;;;6.70;80.24;99298.17;2671323;87;21196;-63
2020/12/08 02:05:29;;;;;;;59.15;39.70;;;;;;;6.69;80.50;99303.11;2671239;89;21187;-62
2020/12/08 02:09:37;;;;;;;73.85;43.78;;;;;;;6.71;80.61;99297.20;2671260;89;21637;-61
2020/12/08 02:13:40;;;;;;;65.78;42.20;;;;;;;6.74;80.56;99304.53;2670964;89;22308;-62
2020/12/08 02:17:44;;;;;;;53.08;37.42;;;;;;;6.77;80.61;99303.77;2713098;87;21189;-61
2020/12/08 02:21:49;;;;;;;63.25;41.55;;;;;;;6.80;80.37;99306.19;2713354;87;21187;-63
2020/12/08 02:26:01;;;;;;;63.23;42.48;;;;;;;6.84;80.30;99306.76;2712258;87;21155;-61
2020/12/08 02:30:05;;;;;;;66.95;42.67;;;;;;;6.83;79.95;99305.08;2712156;87;21585;-63
2020/12/08 02:34:07;;;;;;;65.03;40.85;;;;;;;6.75;80.12;99305.70;2712349;87;21159;-61
2020/12/08 02:38:10;;;;;;;57.43;40.30;;;;;;;6.71;80.20;99297.20;2712620;87;21712;-61
2020/12/08 02:42:15;;;;;;;69.00;43.00;;;;;;;6.68;80.28;99298.78;2713080;87;21205;-63
2020/12/08 02:46:18;;;;;;;63.02;37.05;;;;;;;6.65;80.35;99291.58;2713872;87;21667;-61
2020/12/08 02:50:21;;;;;;;65.37;38.28;;;;;;;6.63;80.33;99293.02;2713990;87;21154;-62
2020/12/08 02:54:24;;;;;;;64.95;38.95;;;;;;;6.60;80.23;99284.52;2714225;87;21356;-62
2020/12/08 02:58:28;;;;;;;63.35;40.38;;;;;;;6.54;80.16;99284.03;2713926;87;21182;-61
2020/12/08 03:02:31;;;;;;;70.92;43.20;;;;;;;6.51;80.27;99290.06;2714272;87;22179;-61
2020/12/08 03:06:34;;;;;;;56.55;36.55;;;;;;;6.48;80.17;99282.36;2714257;87;21684;-62
2020/12/08 03:10:37;;;;;;;60.55;38.25;;;;;;;6.36;80.06;99277.59;2714047;87;21198;-61
2020/12/08 03:14:40;;;;;;;64.53;40.85;;;;;;;6.26;80.23;99270.89;2714312;87;21221;-64
2020/12/08 03:18:43;;;;;;;69.62;41.37;;;;;;;6.14;80.27;99277.53;2713938;87;21165;-60
2020/12/08 03:22:46;;;;;;;61.95;40.23;;;;;;;6.06;80.34;99272.00;2714147;87;21213;-62
2020/12/08 03:26:49;;;;;;;63.25;40.50;;;;;;;6.00;80.39;99269.82;2713935;87;21177;-62
2020/12/08 03:30:52;;;;;;;70.35;42.00;;;;;;;5.91;80.49;99271.39;2714172;87;21153;-61
2020/12/08 03:34:55;;;;;;;61.98;36.73;;;;;;;5.81;80.62;99281.83;2714133;86;21201;-61
2020/12/08 03:38:58;;;;;;;56.37;39.88;;;;;;;5.69;80.88;99280.13;2713941;87;21165;-62
2020/12/08 03:43:02;;;;;;;68.40;38.48;;;;;;;5.61;81.06;99286.49;2714175;87;21637;-60
2020/12/08 03:47:05;;;;;;;62.53;38.83;;;;;;;5.50;81.15;99284.22;2714131;87;21221;-63
2020/12/08 03:51:15;;;;;;;57.70;39.78;;;;;;;5.44;81.34;99297.86;2713611;87;21195;-62
2020/12/08 03:55:18;;;;;;;66.30;41.92;;;;;;;5.37;81.38;99305.89;2711924;87;21166;-62
2020/12/08 03:59:21;;;;;;;68.60;40.40;;;;;;;5.31;81.47;99312.95;2712467;87;21189;-63
2020/12/08 04:03:24;;;;;;;67.47;38.48;;;;;;;5.26;81.48;99327.80;2712772;87;21652;-61
2020/12/08 04:07:28;;;;;;;61.08;40.65;;;;;;;5.22;81.54;99321.91;2713528;87;21188;-61
2020/12/08 04:11:32;;;;;;;57.20;38.73;;;;;;;5.19;81.55;99331.36;2714010;87;21193;-61
2020/12/08 04:15:35;;;;;;;70.42;42.38;;;;;;;5.17;81.51;99341.19;2713401;87;21625;-62
2020/12/08 04:19:39;;;;;;;67.58;41.28;;;;;;;5.15;81.58;99331.23;2712428;87;21135;-61
2020/12/08 04:23:41;;;;;;;68.05;43.30;;;;;;;5.12;81.44;99330.16;2712400;87;21182;-61
2020/12/08 04:27:44;;;;;;;59.98;41.65;;;;;;;5.09;81.43;99320.66;2713835;87;21650;-62
2020/12/08 04:31:50;;;;;;;63.83;44.08;;;;;;;5.03;81.40;99315.00;2687145;88;21156;-62
2020/12/08 04:35:53;;;;;;;68.53;46.67;;;;;;;4.96;81.48;99319.42;2684760;87;21149;-62
2020/12/08 04:39:57;;;;;;;59.03;41.75;;;;;;;4.89;81.68;99323.45;2687156;88;21172;-62
2020/12/08 04:44:04;;;;;;;72.50;44.53;;;;;;;4.85;81.75;99329.91;2684491;88;21180;-63
2020/12/08 04:48:07;;;;;;;59.55;42.53;;;;;;;4.82;81.81;99338.89;2686948;88;21212;-62
2020/12/08 04:52:12;;;;;;;78.07;45.65;;;;;;;4.79;82.02;99350.12;2683955;88;21515;-62
2020/12/08 04:56:16;;;;;;;68.50;45.12;;;;;;;4.79;82.28;99364.62;2687157;88;21651;-62
2020/12/08 05:00:19;;;;;;;61.05;41.53;;;;;;;4.83;82.32;99364.29;2688821;88;21192;-62
2020/12/08 05:04:24;;;;;;;66.02;42.98;;;;;;;4.87;82.45;99363.57;2688877;88;21218;-62
2020/12/08 05:08:27;;;;;;;70.77;43.03;;;;;;;4.89;82.24;99360.34;2689248;88;21656;-62
2020/12/08 05:12:30;;;;;;;66.95;40.90;;;;;;;4.89;82.06;99365.61;2718362;87;21646;-60
2020/12/08 05:16:34;;;;;;;55.83;38.98;;;;;;;4.90;82.11;99371.25;2692215;88;21240;-61
2020/12/08 05:20:39;;;;;;;69.90;43.05;;;;;;;4.91;82.17;99357.11;2728876;87;21672;-62
2020/12/08 05:24:42;;;;;;;66.62;42.62;;;;;;;4.89;82.07;99342.39;2736091;87;21680;-61
2020/12/08 05:28:44;;;;;;;62.33;35.83;;;;;;;4.82;81.98;99353.39;2717993;86;21209;-61
2020/12/08 05:32:48;;;;;;;69.05;48.28;;;;;;;4.79;81.79;99362.80;2731076;85;21216;-62
2020/12/08 05:36:53;;;;;;;59.15;44.03;;;;;;;4.71;82.00;99369.94;2737976;87;21205;-62
2020/12/08 05:40:59;;;;;;;74.80;45.40;;;;;;;4.73;82.56;99372.48;2738208;87;21655;-60
2020/12/08 05:45:05;;;;;;;72.65;44.25;;;;;;;4.81;82.54;99371.44;2719265;87;21145;-62
2020/12/08 05:49:12;;;;;;;60.73;44.70;;;;;;;4.89;82.44;99385.38;2718792;87;21185;-61
2020/12/08 05:53:17;;;;;;;78.37;49.38;;;;;;;4.93;82.36;99389.50;2718752;87;22210;-61
2020/12/08 05:57:20;;;;;;;66.55;45.55;;;;;;;5.02;82.25;99389.77;2718974;87;21201;-60
2020/12/08 06:01:23;;;;;;;83.17;47.62;;;;;;;5.04;82.20;99383.90;2718828;87;21634;-61
2020/12/08 06:05:32;;;;;;;73.33;46.02;;;;;;;5.04;82.12;99390.03;2717951;87;21190;-62
2020/12/08 06:09:36;;;;;;;81.53;48.13;;;;;;;5.00;82.01;99390.72;2718924;87;21197;-61
2020/12/08 06:13:48;;;;;;;65.60;46.63;;;;;;;4.97;82.38;99383.04;2718845;87;21782;-63
2020/12/08 06:17:52;;;;;;;72.82;44.10;;;;;;;4.98;82.40;99384.72;2719070;87;21634;-61
2020/12/08 06:21:55;;;;;;;70.35;46.13;;;;;;;4.94;82.53;99388.54;2719070;87;21152;-62
2020/12/08 06:26:01;;;;;;;75.78;45.05;;;;;;;4.94;82.56;99389.86;2719012;87;21180;-61
2020/12/08 06:30:05;;;;;;;78.05;52.75;;;;;;;4.92;82.67;99391.77;2718861;87;21677;-62
2020/12/08 06:34:08;;;;;;;65.78;43.80;;;;;;;4.86;82.68;99387.78;2718624;86;21185;-62
2020/12/08 06:38:11;;;;;;;74.12;46.40;;;;;;;4.86;82.81;99404.91;2718748;87;21157;-60
2020/12/08 06:42:15;;;;;;;72.87;48.75;;;;;;;4.92;82.82;99401.45;2719018;87;21145;-61
2020/12/08 06:46:18;;;;;;;64.60;46.88;;;;;;;4.91;82.83;99401.92;2718771;87;21185;-61
2020/12/08 06:50:25;;;;;;;72.25;41.77;;;;;;;4.94;83.00;99414.04;2718728;87;21160;-62
2020/12/08 06:54:29;;;;;;;71.28;50.55;;;;;;;4.95;83.14;99411.77;2718458;87;21181;-61
2020/12/08 06:58:31;;;;;;;73.50;50.52;;;;;;;4.96;83.33;99401.59;2718864;87;21169;-60
2020/12/08 07:02:50;;;;;;;78.40;46.73;;;;;;;4.98;83.22;99412.86;2718634;87;21181;-62
2020/12/08 07:06:53;;;;;;;84.32;56.70;;;;;;;4.99;83.28;99421.13;2718605;87;21722;-62
2020/12/08 07:10:57;;;;;;;81.22;48.10;;;;;;;5.00;83.42;99424.13;2718581;87;21180;-61
2020/12/08 07:15:00;;;;;;;85.35;46.35;;;;;;;4.94;83.44;99430.71;2718801;87;21213;-62
2020/12/08 07:19:06;;;;;;;80.45;49.95;;;;;;;4.91;83.56;99434.86;2718858;87;21949;-62
2020/12/08 07:23:11;;;;;;;90.38;56.63;;;;;;;4.92;83.79;99423.86;2718844;87;21173;-63
2020/12/08 07:27:15;;;;;;;85.53;54.77;;;;;;;5.01;83.69;99431.08;2718697;87;21655;-62
2020/12/08 07:31:24;;;;;;;139.12;84.92;;;;;;;5.00;83.44;99435.53;2718895;87;21161;-62
2020/12/08 07:35:30;;;;;;;224.85;129.90;;;;;;;5.06;83.74;99434.71;2718582;86;21220;-62
2020/12/08 07:39:33;;;;;;;180.65;89.83;;;;;;;5.14;83.48;99431.06;2719129;87;21189;-63
2020/12/08 07:43:36;;;;;;;250.53;153.93;;;;;;;5.18;83.25;99433.83;2718910;87;21181;-63
2020/12/08 07:47:39;;;;;;;130.18;81.78;;;;;;;5.18;83.27;99439.56;2718860;87;21145;-63
2020/12/08 07:51:41;;;;;;;169.55;103.12;;;;;;;5.22;83.28;99436.60;2719530;87;21176;-61
2020/12/08 07:55:46;;;;;;;173.22;108.72;;;;;;;5.29;83.29;99443.59;2718695;87;21209;-63
2020/12/08 07:59:50;;;;;;;182.95;118.45;;;;;;;5.41;83.17;99441.84;2719008;87;21210;-63
2020/12/08 08:03:53;;;;;;;295.85;177.62;;;;;;;5.50;82.74;99446.45;2718925;87;22269;-62
2020/12/08 08:07:57;;;;;;;104.45;62.65;;;;;;;5.56;82.42;99445.98;2718900;87;21169;-61
2020/12/08 08:12:02;;;;;;;115.88;70.72;;;;;;;5.65;82.24;99446.23;2719228;87;21439;-63
2020/12/08 08:16:10;;;;;;;156.35;103.22;;;;;;;5.73;81.97;99450.48;2719007;87;21189;-63
2020/12/08 08:20:13;;;;;;;83.85;54.58;;;;;;;5.77;81.52;99462.48;2718551;87;21651;-63
2020/12/08 08:24:16;;;;;;;84.97;56.18;;;;;;;5.77;81.35;99460.31;2718679;87;21221;-62
2020/12/08 08:28:21;;;;;;;89.28;62.85;;;;;;;5.72;81.34;99463.31;2718841;87;21176;-62
2020/12/08 08:32:25;;;;;;;113.88;72.05;;;;;;;5.77;81.53;99469.08;2687399;87;21181;-63
2020/12/08 08:36:28;;;;;;;129.25;91.57;;;;;;;5.80;81.36;99471.48;2673120;88;21214;-62
2020/12/08 08:40:32;;;;;;;100.62;63.15;;;;;;;5.84;81.38;99475.58;2673214;88;21208;-62
2020/12/08 08:44:36;;;;;;;87.97;52.80;;;;;;;5.90;81.19;99476.92;2673180;88;21596;-61
2020/12/08 08:48:39;;;;;;;83.07;59.98;;;;;;;5.91;80.77;99489.66;2673293;89;21205;-62
2020/12/08 08:52:42;;;;;;;78.20;53.40;;;;;;;5.87;80.69;99487.70;2673276;88;21165;-62
2020/12/08 08:56:45;;;;;;;148.90;96.17;;;;;;;5.90;80.70;99491.93;2673029;88;21209;-61
2020/12/08 09:00:48;;;;;;;104.45;66.65;;;;;;;5.94;80.90;99493.38;2673115;88;21652;-61
2020/12/08 09:04:52;;;;;;;128.25;77.03;;;;;;;6.02;80.93;99488.38;2673348;87;21205;-60
2020/12/08 09:08:55;;;;;;;111.42;72.45;;;;;;;6.10;80.82;99478.09;2673481;87;21193;-61
2020/12/08 09:12:59;;;;;;;147.68;87.00;;;;;;;6.12;80.45;99480.13;2673048;88;21227;-63
2020/12/08 09:17:03;;;;;;;109.55;63.87;;;;;;;6.14;80.35;99479.53;2673055;88;22532;-61
2020/12/08 09:21:07;;;;;;;122.00;79.97;;;;;;;6.19;80.27;99484.94;2673197;88;21197;-60
2020/12/08 09:25:10;;;;;;;202.93;120.57;;;;;;;6.24;80.46;99488.06;2673077;88;21165;-61
2020/12/08 09:29:14;;;;;;;122.85;73.87;;;;;;;6.31;80.24;99487.97;2673629;89;21153;-61
2020/12/08 09:33:17;;;;;;;247.52;144.95;;;;;;;6.40;80.12;99489.89;2674350;87;21189;-61
2020/12/08 09:37:20;;;;;;;169.72;97.47;;;;;;;6.43;80.04;99490.14;2674187;88;21623;-62
2020/12/08 09:41:23;;;;;;;102.72;60.12;;;;;;;6.50;80.06;99486.55;2674345;89;21185;-60
2020/12/08 09:45:26;;;;;;;129.00;77.37;;;;;;;6.61;79.97;99489.67;2673969;89;21193;-61
2020/12/08 09:49:29;;;;;;;105.65;66.00;;;;;;;6.69;80.02;99481.97;2674275;88;21173;-61
2020/12/08 09:53:32;;;;;;;90.30;58.30;;;;;;;6.79;79.77;99486.05;2674328;89;21189;-61
2020/12/08 09:57:35;;;;;;;126.55;77.00;;;;;;;6.91;79.96;99485.56;2674364;89;21624;-61
2020/12/08 10:01:38;;;;;;;79.35;50.38;;;;;;;7.03;79.30;99490.34;2674511;88;21189;-64
2020/12/08 10:05:41;;;;;;;98.47;59.98;;;;;;;7.12;79.08;99486.48;2674068;88;21189;-62
2020/12/08 10:09:45;;;;;;;96.47;59.03;;;;;;;7.14;78.75;99487.70;2674342;89;21139;-61
2020/12/08 10:13:49;;;;;;;123.97;75.90;;;;;;;7.11;78.14;99480.02;2674251;89;21177;-61
2020/12/08 10:17:52;;;;;;;116.17;75.95;;;;;;;7.11;78.53;99478.69;2673860;89;21185;-60
2020/12/08 10:21:57;;;;;;;97.27;60.35;;;;;;;7.12;78.52;99486.98;2672080;88;21283;-60
2020/12/08 10:26:02;;;;;;;114.35;70.78;;;;;;;7.06;78.38;99483.48;2673772;89;21623;-62
2020/12/08 10:30:06;;;;;;;78.00;53.85;;;;;;;7.09;78.33;99485.91;2673958;89;21576;-60
2020/12/08 10:34:10;;;;;;;78.45;51.53;;;;;;;7.11;78.19;99484.80;2674041;87;21198;-60
2020/12/08 10:38:14;;;;;;;96.28;63.90;;;;;;;7.14;78.42;99483.73;2674013;88;21181;-61
2020/12/08 10:42:17;;;;;;;77.35;50.78;;;;;;;7.20;78.09;99488.52;2674155;88;21197;-63
2020/12/08 10:46:20;;;;;;;77.53;53.30;;;;;;;7.19;77.76;99492.13;2674392;89;21170;-63
2020/12/08 10:50:23;;;;;;;82.85;53.50;;;;;;;7.16;77.81;99488.41;2673916;89;21750;-62
2020/12/08 10:54:26;;;;;;;74.40;50.30;;;;;;;7.22;77.95;99485.27;2674184;89;21169;-60
2020/12/08 10:58:29;;;;;;;84.83;53.60;;;;;;;7.28;77.77;99496.69;2673720;89;21202;-60
2020/12/08 11:02:34;;;;;;;77.30;53.38;;;;;;;7.33;77.72;99492.83;2673948;89;21193;-62
2020/12/08 11:06:38;;;;;;;74.15;53.23;;;;;;;7.35;77.54;99493.54;2671763;89;21181;-61
2020/12/08 11:10:41;;;;;;;71.20;51.37;;;;;;;7.38;77.74;99483.55;2671546;89;21169;-61
2020/12/08 11:14:47;;;;;;;65.40;45.35;;;;;;;7.41;77.56;99487.73;2673943;88;21177;-60
2020/12/08 11:18:51;;;;;;;74.12;48.55;;;;;;;7.43;77.78;99487.12;2674138;89;21209;-61
2020/12/08 11:22:55;;;;;;;69.27;43.70;;;;;;;7.50;77.59;99496.27;2673922;89;21604;-61
2020/12/08 11:26:58;;;;;;;84.32;55.43;;;;;;;7.56;77.57;99501.05;2674386;89;21640;-60
2020/12/08 11:31:01;;;;;;;70.78;50.33;;;;;;;7.66;77.29;99493.66;2674142;88;21243;-60
2020/12/08 11:35:05;;;;;;;68.22;47.50;;;;;;;7.77;77.02;99492.30;2672911;87;21177;-60
2020/12/08 11:39:09;;;;;;;58.55;37.90;;;;;;;7.86;76.90;99481.42;2674396;88;21623;-60
2020/12/08 11:43:12;;;;;;;51.55;36.83;;;;;;;7.98;76.74;99475.11;2674536;89;21604;-62
2020/12/08 11:47:17;;;;;;;56.60;38.80;;;;;;;8.10;76.51;99473.23;2674034;88;21694;-60
2020/12/08 11:51:20;;;;;;;58.87;37.38;;;;;;;8.22;76.16;99481.09;2674708;89;21638;-60
2020/12/08 11:55:23;;;;;;;61.98;42.40;;;;;;;8.33;75.79;99485.01;2674752;88;21189;-62
2020/12/08 11:59:28;;;;;;;101.82;67.25;;;;;;;8.38;75.56;99482.80;2674488;89;21576;-62
2020/12/08 12:03:31;;;;;;;98.20;57.50;;;;;;;8.41;75.59;99478.55;2674465;89;21644;-60
2020/12/08 12:07:35;;;;;;;99.75;55.78;;;;;;;8.46;75.88;99478.16;2674362;89;21193;-62
2020/12/08 12:11:38;;;;;;;113.45;66.70;;;;;;;8.48;75.69;99477.55;2674233;88;21644;-60
2020/12/08 12:15:41;;;;;;;137.97;83.20;;;;;;;8.50;75.78;99474.30;2674275;89;21142;-60
2020/12/08 12:19:44;;;;;;;82.42;52.30;;;;;;;8.53;75.72;99481.16;2674147;89;21185;-62
2020/12/08 12:23:47;;;;;;;82.37;49.18;;;;;;;8.47;75.39;99477.19;2674251;89;21185;-61
2020/12/08 12:27:51;;;;;;;57.13;36.28;;;;;;;8.44;75.59;99477.46;2686254;87;21213;-62
2020/12/08 12:31:55;;;;;;;46.08;34.27;;;;;;;8.38;75.55;99481.47;2706632;87;21200;-62
2020/12/08 12:35:58;;;;;;;46.20;33.48;;;;;;;8.37;75.51;99478.97;2708209;87;21186;-62
2020/12/08 12:40:01;;;;;;;50.08;33.05;;;;;;;8.38;75.57;99469.55;2707883;87;21193;-62
2020/12/08 12:44:04;;;;;;;53.58;37.75;;;;;;;8.40;75.36;99473.41;2686810;88;21662;-62
2020/12/08 12:48:07;;;;;;;47.73;33.23;;;;;;;8.43;75.65;99472.63;2708108;87;21625;-62
2020/12/08 12:52:10;;;;;;;50.52;30.10;;;;;;;8.49;75.37;99474.42;2707946;87;21657;-60
2020/12/08 12:56:24;;;;;;;52.23;36.20;;;;;;;8.50;75.26;99472.16;2707734;87;21609;-62
2020/12/08 13:00:27;;;;;;;51.50;32.90;;;;;;;8.56;75.41;99478.24;2708140;87;21150;-64
2020/12/08 13:04:30;;;;;;;52.27;32.93;;;;;;;8.57;75.30;99478.13;2707947;87;21182;-63
2020/12/08 13:08:36;;;;;;;50.05;32.98;;;;;;;8.62;75.35;99476.38;2708017;87;21629;-62
2020/12/08 13:12:40;;;;;;;50.58;34.03;;;;;;;8.62;75.43;99484.33;2708171;87;21186;-62
2020/12/08 13:16:44;;;;;;;58.52;35.83;;;;;;;8.65;75.38;99481.91;2673309;88;21483;-61
2020/12/08 13:20:48;;;;;;;67.40;45.10;;;;;;;8.68;75.38;99492.24;2685584;88;21620;-62
2020/12/08 13:24:51;;;;;;;114.80;65.55;;;;;;;8.65;75.62;99493.37;2685340;88;21184;-61
2020/12/08 13:28:54;;;;;;;106.63;65.12;;;;;;;8.64;75.74;99494.31;2685042;88;21169;-61
2020/12/08 13:32:57;;;;;;;103.72;57.73;;;;;;;8.63;75.91;99487.33;2692624;87;21177;-63
2020/12/08 13:37:00;;;;;;;85.72;50.70;;;;;;;8.62;75.98;99488.30;2691536;88;21607;-63
2020/12/08 13:41:04;;;;;;;109.20;64.15;;;;;;;8.58;76.23;99484.25;2707628;86;21158;-63
2020/12/08 13:45:07;;;;;;;96.92;54.53;;;;;;;8.54;76.31;99473.06;2712543;86;21199;-61
2020/12/08 13:49:11;;;;;;;101.15;53.30;;;;;;;8.51;76.55;99472.50;2712443;86;21193;-63
2020/12/08 13:53:15;;;;;;;77.00;49.13;;;;;;;8.46;76.73;99478.16;2720428;86;21605;-61
2020/12/08 13:57:19;;;;;;;123.55;67.85;;;;;;;8.44;77.02;99486.23;2702730;86;21183;-63
2020/12/08 14:01:22;;;;;;;80.35;50.10;;;;;;;8.47;77.23;99479.02;2721304;86;21209;-62
2020/12/08 14:05:25;;;;;;;120.00;69.37;;;;;;;8.48;77.36;99482.02;2716980;86;21213;-62
2020/12/08 14:09:28;;;;;;;161.70;88.80;;;;;;;8.55;77.35;99477.89;2714430;86;21223;-61
2020/12/08 14:13:31;;;;;;;90.07;56.68;;;;;;;8.60;76.91;99483.63;2720883;86;21161;-62
2020/12/08 14:17:34;;;;;;;109.32;70.67;;;;;;;8.64;76.45;99481.05;2720227;86;21623;-61
2020/12/08 14:21:37;;;;;;;55.25;34.13;;;;;;;8.71;76.05;99483.55;2722897;86;21174;-63
2020/12/08 14:25:39;;;;;;;68.45;38.98;;;;;;;8.74;75.70;99477.62;2716246;86;21212;-62
2020/12/08 14:29:42;;;;;;;58.60;34.50;;;;;;;8.71;75.76;99478.24;2667816;88;21296;-62
2020/12/08 14:33:45;;;;;;;46.83;28.92;;;;;;;8.69;75.52;99476.22;2709299;87;21170;-63
2020/12/08 14:37:50;;;;;;;100.92;57.90;;;;;;;8.67;75.70;99482.61;2662597;87;21726;-64
2020/12/08 14:41:52;;;;;;;64.07;38.17;;;;;;;8.69;75.60;99489.47;2705413;87;21184;-62
2020/12/08 14:45:56;;;;;;;88.97;57.80;;;;;;;8.69;75.47;99484.17;2676041;88;21203;-62
2020/12/08 14:49:59;;;;;;;40.33;26.75;;;;;;;8.68;75.37;99484.29;2637856;89;21647;-64
2020/12/08 14:54:03;;;;;;;67.15;42.62;;;;;;;8.67;75.50;99491.89;2662398;88;21741;-63
2020/12/08 14:58:05;;;;;;;66.90;42.40;;;;;;;8.65;75.77;99492.05;2708331;87;21649;-63
2020/12/08 15:02:09;;;;;;;68.33;46.33;;;;;;;8.68;75.67;99491.77;2648743;88;21192;-62
2020/12/08 15:06:14;;;;;;;60.20;39.63;;;;;;;8.71;75.68;99497.28;2667220;87;21670;-63
2020/12/08 15:10:18;;;;;;;74.97;49.00;;;;;;;8.74;75.61;99502.81;2639692;87;36968;-63
2020/12/08 15:14:21;;;;;;;94.17;55.98;;;;;;;8.74;75.70;99510.77;2669845;88;21226;-61
2020/12/08 15:18:25;;;;;;;46.68;32.78;;;;;;;8.70;75.80;99510.18;2693476;87;21216;-64
2020/12/08 15:22:28;;;;;;;51.58;32.98;;;;;;;8.69;75.97;99513.33;2668028;88;21495;-61
2020/12/08 15:26:30;;;;;;;34.80;21.15;;;;;;;8.62;76.12;99518.80;2725031;86;21189;-64
2020/12/08 15:30:36;;;;;;;55.60;32.23;;;;;;;8.54;76.18;99518.13;2686003;87;21619;-63
2020/12/08 15:34:42;;;;;;;68.83;38.23;;;;;;;8.44;76.47;99518.04;2616947;90;21225;-62
2020/12/08 15:38:45;;;;;;;44.08;26.33;;;;;;;8.34;76.96;99528.23;2645713;88;21199;-61
2020/12/08 15:42:49;;;;;;;58.25;37.70;;;;;;;8.29;77.31;99537.41;2675861;88;21564;-62
2020/12/08 15:46:53;;;;;;;60.83;39.15;;;;;;;8.34;77.47;99527.76;2666363;88;21229;-62
2020/12/08 15:50:58;;;;;;;76.85;48.90;;;;;;;8.33;77.32;99526.08;2670716;87;21154;-62
2020/12/08 15:55:03;;;;;;;79.22;45.55;;;;;;;8.33;77.32;99535.36;2662972;88;21209;-62
2020/12/08 15:59:06;;;;;;;50.95;30.55;;;;;;;8.31;77.10;99528.02;2674713;88;21173;-63
2020/12/08 16:03:09;;;;;;;62.78;33.42;;;;;;;8.28;77.25;99526.97;2674581;88;21675;-62
2020/12/08 16:07:12;;;;;;;42.60;24.87;;;;;;;8.26;77.11;99531.55;2679020;88;21673;-63
2020/12/08 16:11:16;;;;;;;230.05;142.30;;;;;;;8.24;77.04;99527.70;2658673;88;21214;-61
2020/12/08 16:15:19;;;;;;;52.85;32.85;;;;;;;8.25;77.08;99537.80;2673535;88;21169;-64
2020/12/08 16:19:25;;;;;;;50.33;32.85;;;;;;;8.31;77.03;99537.77;2647837;88;21174;-63
2020/12/08 16:23:29;;;;;;;72.80;47.17;;;;;;;8.34;76.98;99541.48;2669713;88;21226;-63
2020/12/08 16:27:39;;;;;;;77.05;53.80;;;;;;;8.32;77.06;99542.95;2662478;89;21193;-62
2020/12/08 16:31:50;;;;;;;69.00;49.53;;;;;;;8.19;77.07;99539.64;2665108;88;21204;-62
2020/12/08 16:36:11;;;;;;;67.90;48.33;;;;;;;8.14;77.24;99545.32;2916500;77;29202;-62
2020/12/08 16:40:16;;;;;;;72.50;48.57;;;;;;;8.10;77.50;99554.03;2905629;80;38586;-64
2020/12/08 16:44:22;;;;;;;59.00;38.50;;;;;;;8.18;77.00;99550.74;2917826;80;21139;-62
2020/12/08 16:48:32;;;;;;;67.22;43.45;;;;;;;8.12;76.99;99552.56;2892951;80;21147;-65
2020/12/08 16:52:42;;;;;;;68.60;41.42;;;;;;;8.07;77.02;99559.59;2904502;80;21201;-63
2020/12/08 16:56:49;;;;;;;54.67;39.78;;;;;;;7.98;77.23;99565.63;2914211;80;21154;-63
2020/12/08 17:01:07;;;;;;;77.45;48.80;;;;;;;7.89;77.40;99559.28;2940449;80;21145;-63
2020/12/08 17:05:16;;;;;;;64.17;38.28;;;;;;;7.82;77.41;99560.27;2872446;82;21169;-64
2020/12/08 17:09:25;;;;;;;62.73;46.00;;;;;;;7.73;77.42;99571.63;2800004;82;21638;-64
2020/12/08 17:13:29;;;;;;;69.53;42.00;;;;;;;7.61;77.63;99572.61;2889825;80;21171;-64
2020/12/08 17:17:39;;;;;;;;;;;;;;;7.48;78.00;99574.95;2923054;80;21152;-66
2020/12/08 17:21:48;;;;;;;81.37;48.23;;;;;;;7.36;78.46;99575.91;2917542;80;20173;-64
2020/12/08 17:25:55;;;;;;;75.47;50.08;;;;;;;7.17;79.18;99570.77;2920824;80;21173;-65
2020/12/08 17:30:01;;;;;;;82.17;50.05;;;;;;;7.12;79.46;99572.94;2920096;80;21633;-64
2020/12/08 17:34:05;;;;;;;76.02;49.18;;;;;;;7.06;79.66;99575.58;2905547;80;21162;-63
2020/12/08 17:38:08;;;;;;;82.82;50.85;;;;;;;7.03;79.88;99563.92;2917526;80;21153;-64
2020/12/08 17:42:14;;;;;;;76.67;49.90;;;;;;;7.03;79.97;99578.94;2894729;81;21193;-61
2020/12/08 17:46:17;;;;;;;78.52;49.03;;;;;;;7.03;79.94;99589.52;2930178;80;21189;-63
2020/12/08 17:50:22;;;;;;;61.87;43.10;;;;;;;7.05;79.69;99582.30;2884170;81;21603;-64
2020/12/08 17:54:25;;;;;;;78.67;48.65;;;;;;;7.05;79.58;99588.44;2877461;80;21160;-64
2020/12/08 17:58:29;;;;;;;78.80;45.98;;;;;;;7.08;79.27;99583.41;2860655;81;21183;-64
2020/12/08 18:02:34;;;;;;;70.70;42.60;;;;;;;6.98;79.16;99581.47;2892262;82;21152;-64
2020/12/08 18:06:42;;;;;;;67.50;41.00;;;;;;;6.76;79.61;99586.74;2819455;83;21177;-64
2020/12/08 18:10:46;;;;;;;80.65;46.10;;;;;;;6.68;79.78;99587.33;2895482;80;21178;-64
2020/12/08 18:14:49;;;;;;;67.45;43.38;;;;;;;6.67;79.75;99593.58;2883827;81;21153;-65
2020/12/08 18:18:54;;;;;;;87.60;56.33;;;;;;;6.63;79.51;99590.32;2876230;80;21153;-63
2020/12/08 18:22:58;;;;;;;76.63;47.33;;;;;;;6.60;79.66;99588.41;2844159;80;21152;-63
2020/12/08 18:27:03;;;;;;;167.60;92.17;;;;;;;6.53;79.71;99593.32;2847800;80;21147;-63
2020/12/08 18:31:17;;;;;;;107.67;60.95;;;;;;;6.45;79.96;99593.05;2905889;80;21160;-63
2020/12/08 18:35:22;;;;;;;215.22;121.50;;;;;;;6.36;80.19;99600.72;2912842;79;21129;-64
2020/12/08 18:39:26;;;;;;;192.35;105.40;;;;;;;6.32;80.43;99600.59;2910670;80;21109;-63
2020/12/08 18:43:29;;;;;;;146.62;90.15;;;;;;;6.31;80.33;99610.80;2900791;80;21177;-63
2020/12/08 18:47:34;;;;;;;112.77;75.12;;;;;;;6.31;80.21;99605.52;2930711;80;21486;-63
2020/12/08 18:51:38;;;;;;;104.32;67.80;;;;;;;6.29;80.03;99607.43;2903646;80;21148;-64
2020/12/08 18:55:46;;;;;;;127.17;76.40;;;;;;;6.20;79.92;99608.09;2897197;80;21164;-64